Time;durP1;ratioP1;P1;durP2;ratioP2;P2;SDS_P1;SDS_P2;PMS_P1;PMS_P2;Temp;Humidity;BMP_temperature;BMP_pressure;BME280_temperature;BME280_humidity;BME280_pressure;Samples;Min_cycle;Max_cycle;Signal;HPM_P1;HPM_P2
2023/05/08 00:01:08;;;;;;;10.43;5.40;;;13.10;99.90;;;;;;5003725;28;20188;-71
2023/05/08 00:03:33;;;;;;;7.57;5.20;;;13.10;99.90;;;;;;4990653;28;20188;-71
2023/05/08 00:06:02;;;;;;;10.37;5.17;;;13.20;99.90;;;;;;4991111;28;20214;-70
2023/05/08 00:08:28;;;;;;;11.10;5.90;;;13.20;99.90;;;;;;4978447;28;20208;-70
2023/05/08 00:10:53;;;;;;;8.90;5.23;;;13.10;99.90;;;;;;4997491;28;20430;-70
2023/05/08 00:13:19;;;;;;;9.87;5.47;;;13.20;99.90;;;;;;4990857;28;20676;-70
2023/05/08 00:15:45;;;;;;;9.37;5.93;;;13.20;99.90;;;;;;4990679;28;20182;-70
2023/05/08 00:18:10;;;;;;;10.10;5.67;;;13.10;99.90;;;;;;4990679;28;20202;-70
2023/05/08 00:20:36;;;;;;;10.80;6.17;;;13.10;99.90;;;;;;4990973;28;20318;-70
2023/05/08 00:23:02;;;;;;;10.40;6.60;;;13.10;99.90;;;;;;5001549;28;20179;-70
2023/05/08 00:25:29;;;;;;;11.20;6.37;;;13.10;99.90;;;;;;5014734;28;20426;-70
2023/05/08 00:27:56;;;;;;;9.00;5.47;;;13.10;99.90;;;;;;5002389;28;20298;-70
2023/05/08 00:30:21;;;;;;;10.17;5.27;;;13.10;99.90;;;;;;5001186;28;20477;-70
2023/05/08 00:32:47;;;;;;;8.40;5.33;;;13.10;99.90;;;;;;4994335;28;20455;-70
2023/05/08 00:35:12;;;;;;;9.40;4.93;;;13.10;99.90;;;;;;5008090;28;20278;-69
2023/05/08 00:37:40;;;;;;;11.07;5.33;;;13.10;99.90;;;;;;5008630;28;20530;-69
2023/05/08 00:40:07;;;;;;;13.87;5.50;;;13.10;99.90;;;;;;4999006;28;20258;-69
2023/05/08 00:42:33;;;;;;;12.40;5.33;;;13.10;99.90;;;;;;5014309;28;20773;-70
2023/05/08 00:44:58;;;;;;;10.17;5.33;;;13.10;99.90;;;;;;5000977;28;20427;-69
2023/05/08 00:47:24;;;;;;;10.83;5.53;;;13.10;99.90;;;;;;4995268;28;20262;-69
2023/05/08 00:49:50;;;;;;;8.03;5.47;;;13.10;99.90;;;;;;4993557;28;20649;-70
2023/05/08 00:52:16;;;;;;;6.57;4.50;;;13.10;99.90;;;;;;4995444;28;20180;-69
2023/05/08 00:54:43;;;;;;;8.40;5.50;;;13.00;99.90;;;;;;4995146;28;20652;-69
2023/05/08 00:57:09;;;;;;;10.13;5.40;;;13.00;99.90;;;;;;5014260;28;20556;-70
2023/05/08 00:59:36;;;;;;;10.30;5.50;;;13.00;99.90;;;;;;4987934;28;20461;-69
2023/05/08 01:02:02;;;;;;;9.97;6.03;;;13.00;99.90;;;;;;4974359;28;20979;-69
2023/05/08 01:04:29;;;;;;;8.67;4.20;;;13.20;99.90;;;;;;4987518;28;20430;-69
2023/05/08 01:06:55;;;;;;;9.10;5.10;;;13.00;99.90;;;;;;4974482;28;20987;-69
2023/05/08 01:09:21;;;;;;;10.67;5.40;;;13.10;99.90;;;;;;4974904;28;20487;-69
2023/05/08 01:11:53;;;;;;;11.60;6.17;;;13.10;99.90;;;;;;4974563;28;20188;-69
2023/05/08 01:14:20;;;;;;;10.23;6.00;;;13.10;99.90;;;;;;4987163;28;20415;-70
2023/05/08 01:17:08;;;;;;;8.97;5.13;;;13.10;99.90;;;;;;4976923;28;21029;-70
2023/05/08 01:19:55;;;;;;;10.70;5.10;;;13.00;99.90;;;;;;4976996;28;20760;-69
2023/05/08 01:22:54;;;;;;;11.93;5.03;;;13.00;99.90;;;;;;4975742;28;20575;-69
2023/05/08 01:25:44;;;;;;;10.87;5.23;;;13.00;99.90;;;;;;4983735;28;20529;-69
2023/05/08 01:28:19;;;;;;;10.37;6.23;;;13.10;99.90;;;;;;4963720;28;20490;-69
2023/05/08 01:31:28;;;;;;;12.03;5.67;;;13.10;99.90;;;;;;4977780;28;20926;-69
2023/05/08 01:34:13;;;;;;;9.57;5.90;;;13.10;99.90;;;;;;4942345;28;20897;-69
2023/05/08 01:37:00;;;;;;;10.93;5.60;;;13.10;99.90;;;;;;4988640;28;20928;-69
2023/05/08 01:39:55;;;;;;;8.80;5.43;;;13.10;99.90;;;;;;4986825;28;20408;-69
2023/05/08 01:42:49;;;;;;;10.93;6.23;;;13.10;99.90;;;;;;4978610;28;20410;-69
2023/05/08 01:45:22;;;;;;;10.00;6.23;;;13.10;99.90;;;;;;4980833;28;20620;-69
2023/05/08 01:47:56;;;;;;;10.90;6.87;;;13.10;99.90;;;;;;4987976;28;20411;-69
2023/05/08 01:50:31;;;;;;;8.67;4.80;;;13.10;99.90;;;;;;4973471;28;20474;-69
2023/05/08 01:53:15;;;;;;;9.60;5.90;;;13.10;99.90;;;;;;4972837;28;20438;-69
2023/05/08 01:55:42;;;;;;;10.30;5.83;;;13.10;99.90;;;;;;4962021;28;20487;-69
2023/05/08 01:58:09;;;;;;;10.63;5.70;;;13.00;99.90;;;;;;4973231;28;20515;-69
2023/05/08 02:00:39;;;;;;;14.10;6.13;;;13.00;99.90;;;;;;4974312;28;20427;-69
2023/05/08 02:03:06;;;;;;;8.47;5.93;;;13.00;99.90;;;;;;4974781;28;20755;-69
2023/05/08 02:05:35;;;;;;;9.50;6.07;;;13.00;99.90;;;;;;4985301;28;20447;-69
2023/05/08 02:08:02;;;;;;;9.57;5.07;;;13.00;99.90;;;;;;4974267;28;20947;-69
2023/05/08 02:10:29;;;;;;;10.77;4.43;;;13.00;99.90;;;;;;4973373;28;20514;-69
2023/05/08 02:12:55;;;;;;;9.17;5.60;;;13.00;99.90;;;;;;4975224;28;20424;-69
2023/05/08 02:15:23;;;;;;;11.37;6.23;;;13.00;99.90;;;;;;4982530;28;20434;-69
2023/05/08 02:17:50;;;;;;;9.93;5.00;;;13.00;99.90;;;;;;4971344;28;20470;-69
2023/05/08 02:20:19;;;;;;;9.50;4.90;;;13.00;99.90;;;;;;4983545;28;20422;-69
2023/05/08 02:22:47;;;;;;;11.30;5.13;;;12.90;99.90;;;;;;4979556;28;20430;-69
2023/05/08 02:25:15;;;;;;;12.47;6.70;;;12.90;99.90;;;;;;4981791;28;20432;-69
2023/05/08 02:27:45;;;;;;;11.07;6.53;;;12.90;99.90;;;;;;4977114;28;20419;-69
2023/05/08 02:30:16;;;;;;;8.77;5.50;;;12.90;99.90;;;;;;4981669;28;20471;-69
2023/05/08 02:32:43;;;;;;;7.63;5.50;;;12.90;99.90;;;;;;4991379;28;20458;-69
2023/05/08 02:35:14;;;;;;;11.80;5.63;;;12.90;99.90;;;;;;4980623;28;20562;-69
2023/05/08 02:37:48;;;;;;;13.90;5.07;;;12.80;99.90;;;;;;4979830;28;20423;-69
2023/05/08 02:40:15;;;;;;;10.90;5.97;;;12.90;99.90;;;;;;4979745;28;20451;-69
2023/05/08 02:42:41;;;;;;;9.57;5.70;;;12.90;99.90;;;;;;4984438;28;20432;-69
2023/05/08 02:45:08;;;;;;;9.27;5.37;;;12.80;99.90;;;;;;4972174;28;20442;-69
2023/05/08 02:47:38;;;;;;;8.13;5.53;;;12.90;99.90;;;;;;4973410;28;20192;-69
2023/05/08 02:50:48;;;;;;;11.33;6.40;;;12.90;99.90;;;;;;4985173;28;20460;-69
2023/05/08 02:53:21;;;;;;;7.00;4.63;;;12.90;99.90;;;;;;4957808;28;20431;-69
2023/05/08 02:55:56;;;;;;;10.23;6.40;;;12.80;99.90;;;;;;4973514;28;20408;-69
2023/05/08 02:58:36;;;;;;;14.00;6.30;;;12.90;99.90;;;;;;4972801;28;20466;-69
2023/05/08 03:01:20;;;;;;;12.63;6.57;;;12.90;99.90;;;;;;4973082;28;20919;-69
2023/05/08 03:03:53;;;;;;;8.90;5.67;;;12.90;99.90;;;;;;4960295;28;20508;-69
2023/05/08 03:06:23;;;;;;;13.93;7.20;;;12.90;99.90;;;;;;4985976;28;20438;-69
2023/05/08 03:08:50;;;;;;;10.80;5.50;;;12.90;99.90;;;;;;4981631;28;20470;-69
2023/05/08 03:11:21;;;;;;;13.20;7.20;;;13.00;99.90;;;;;;4976801;28;20455;-69
2023/05/08 03:13:48;;;;;;;10.83;5.80;;;12.80;99.90;;;;;;4970508;28;20431;-69
2023/05/08 03:16:22;;;;;;;10.27;6.10;;;12.80;99.90;;;;;;4974699;28;20423;-69
2023/05/08 03:19:04;;;;;;;14.87;6.87;;;12.80;99.90;;;;;;4972221;28;20423;-69
2023/05/08 03:21:30;;;;;;;13.73;7.00;;;12.80;99.90;;;;;;4964800;28;20426;-69
2023/05/08 03:23:58;;;;;;;13.07;7.90;;;12.70;99.90;;;;;;4985481;28;20578;-69
2023/05/08 03:26:25;;;;;;;11.30;6.63;;;12.70;99.90;;;;;;4972709;28;20751;-69
2023/05/08 03:28:52;;;;;;;14.33;6.80;;;12.80;99.90;;;;;;4986573;28;20470;-69
2023/05/08 03:31:20;;;;;;;10.33;5.90;;;12.80;99.90;;;;;;4983906;28;20423;-69
2023/05/08 03:33:47;;;;;;;10.30;6.27;;;12.80;99.90;;;;;;4973579;28;20450;-69
2023/05/08 03:36:14;;;;;;;21.93;7.67;;;12.90;99.90;;;;;;4983089;28;20428;-69
2023/05/08 03:38:40;;;;;;;14.43;6.50;;;12.80;99.90;;;;;;4974542;28;21128;-69
2023/05/08 03:41:06;;;;;;;12.60;6.43;;;12.70;99.90;;;;;;4983194;28;20535;-68
2023/05/08 03:43:32;;;;;;;12.63;7.10;;;12.70;99.90;;;;;;4972325;28;20192;-69
2023/05/08 03:45:59;;;;;;;11.40;7.03;;;12.70;99.90;;;;;;4972078;28;20184;-69
2023/05/08 03:48:26;;;;;;;16.60;7.83;;;12.70;99.90;;;;;;4973708;28;20434;-68
2023/05/08 03:50:52;;;;;;;10.27;6.00;;;12.70;99.90;;;;;;4981850;28;20478;-69
2023/05/08 03:53:18;;;;;;;11.33;6.80;;;12.70;99.90;;;;;;4975096;28;20447;-69
2023/05/08 03:55:44;;;;;;;15.20;7.40;;;12.80;99.90;;;;;;4990421;28;20510;-69
2023/05/08 03:58:27;;;;;;;15.33;7.63;;;12.60;99.90;;;;;;4989994;28;20247;-69
2023/05/08 04:01:27;;;;;;;11.50;7.00;;;12.60;99.90;;;;;;4985940;28;20181;-69
2023/05/08 04:04:02;;;;;;;11.50;7.00;;;12.60;99.90;;;;;;4957888;28;20470;-69
2023/05/08 04:06:51;;;;;;;14.63;6.83;;;12.60;99.90;;;;;;4978248;28;20446;-69
2023/05/08 04:09:41;;;;;;;9.60;6.03;;;12.60;99.90;;;;;;4940681;28;20482;-69
2023/05/08 04:12:30;;;;;;;12.63;7.60;;;12.60;99.90;;;;;;4981844;28;20438;-69
2023/05/08 04:15:07;;;;;;;15.23;6.97;;;12.60;99.90;;;;;;4973267;28;20470;-69
2023/05/08 04:17:33;;;;;;;14.97;8.10;;;12.70;99.90;;;;;;4975818;28;20701;-69
2023/05/08 04:20:03;;;;;;;13.00;7.23;;;12.70;99.90;;;;;;4975132;28;20427;-69
2023/05/08 04:22:31;;;;;;;13.37;6.60;;;12.70;99.90;;;;;;4971889;28;20556;-69
2023/05/08 04:25:00;;;;;;;13.47;7.80;;;12.70;99.90;;;;;;4972193;28;20779;-69
2023/05/08 04:27:26;;;;;;;16.13;7.03;;;12.70;99.90;;;;;;4971970;28;20427;-68
2023/05/08 04:29:53;;;;;;;18.87;7.63;;;12.70;99.90;;;;;;4980696;28;20474;-69
2023/05/08 04:32:19;;;;;;;21.90;8.97;;;12.70;99.90;;;;;;4974484;28;20878;-69
2023/05/08 04:34:45;;;;;;;16.23;8.60;;;12.80;99.90;;;;;;4971123;28;20620;-68
2023/05/08 04:37:26;;;;;;;23.27;9.17;;;12.80;99.90;;;;;;4971312;28;20468;-69
2023/05/08 04:39:52;;;;;;;23.30;9.00;;;12.80;99.90;;;;;;4983714;28;20438;-69
2023/05/08 04:42:18;;;;;;;28.80;9.10;;;12.90;99.90;;;;;;4990634;28;20887;-68
2023/05/08 04:44:44;;;;;;;18.40;8.70;;;12.80;99.90;;;;;;4979127;28;20192;-68
2023/05/08 04:47:09;;;;;;;21.93;10.07;;;12.90;99.90;;;;;;4971404;28;20440;-68
2023/05/08 04:49:35;;;;;;;23.40;10.30;;;12.90;99.90;;;;;;4971428;28;20212;-68
2023/05/08 04:52:00;;;;;;;17.70;8.27;;;13.00;99.90;;;;;;4985257;28;20216;-69
2023/05/08 04:54:26;;;;;;;17.73;9.10;;;13.00;99.90;;;;;;4964715;28;20208;-69
2023/05/08 04:56:52;;;;;;;21.03;10.80;;;13.00;99.90;;;;;;4970305;28;20292;-68
2023/05/08 04:59:17;;;;;;;14.13;8.70;;;13.10;99.90;;;;;;4980299;28;20275;-69
2023/05/08 05:01:45;;;;;;;33.13;10.27;;;13.10;99.90;;;;;;4971089;28;20199;-68
2023/05/08 05:04:11;;;;;;;26.40;11.53;;;13.10;99.90;;;;;;4971240;28;20192;-68
2023/05/08 05:06:37;;;;;;;16.27;10.07;;;13.10;99.90;;;;;;4983550;28;20469;-68
2023/05/08 05:09:03;;;;;;;24.07;11.07;;;13.10;99.90;;;;;;4974666;28;20247;-69
2023/05/08 05:11:29;;;;;;;31.50;11.30;;;13.10;99.90;;;;;;4979699;28;20198;-69
2023/05/08 05:13:54;;;;;;;28.90;11.67;;;13.20;99.90;;;;;;4981481;28;20508;-69
2023/05/08 05:16:20;;;;;;;21.43;10.13;;;13.20;99.90;;;;;;4977147;28;20255;-69
2023/05/08 05:18:46;;;;;;;23.83;12.17;;;13.20;99.90;;;;;;4974276;28;20267;-69
2023/05/08 05:21:12;;;;;;;18.30;11.30;;;13.20;99.90;;;;;;4974723;28;20218;-69
2023/05/08 05:23:38;;;;;;;22.30;10.73;;;13.20;99.90;;;;;;4981855;28;20231;-69
2023/05/08 05:26:03;;;;;;;20.20;10.57;;;13.30;99.90;;;;;;4971562;28;20191;-69
2023/05/08 05:28:29;;;;;;;40.57;10.97;;;13.30;99.90;;;;;;4979296;28;20196;-69
2023/05/08 05:30:55;;;;;;;21.40;9.97;;;13.30;99.90;;;;;;4981384;28;20187;-69
2023/05/08 05:33:20;;;;;;;27.03;9.90;;;13.30;99.90;;;;;;4985819;28;20179;-69
2023/05/08 05:35:46;;;;;;;21.40;10.77;;;13.30;99.90;;;;;;4991057;28;20184;-69
2023/05/08 05:38:12;;;;;;;20.73;9.63;;;13.30;99.90;;;;;;4985600;28;20653;-69
2023/05/08 05:40:37;;;;;;;22.03;10.13;;;13.40;99.90;;;;;;4978236;28;20184;-70
2023/05/08 05:43:03;;;;;;;18.23;10.33;;;13.40;99.90;;;;;;4977058;28;20192;-69
2023/05/08 05:45:28;;;;;;;20.23;10.50;;;13.40;99.90;;;;;;4974312;28;20180;-69
2023/05/08 05:47:54;;;;;;;19.97;11.00;;;13.40;99.90;;;;;;4973551;28;20215;-69
2023/05/08 05:50:21;;;;;;;19.87;10.07;;;13.40;99.90;;;;;;4973028;28;20703;-69
2023/05/08 05:52:46;;;;;;;32.33;10.27;;;13.50;99.90;;;;;;4972545;28;20180;-70
2023/05/08 05:55:12;;;;;;;20.83;10.97;;;13.50;99.90;;;;;;4972564;28;20465;-70
2023/05/08 05:57:38;;;;;;;26.90;10.77;;;13.40;99.90;;;;;;4968010;28;20185;-70
2023/05/08 06:00:04;;;;;;;27.53;13.00;;;13.40;99.90;;;;;;4976794;28;20192;-70
2023/05/08 06:02:32;;;;;;;19.50;10.23;;;13.40;99.90;;;;;;4968252;28;20192;-70
2023/05/08 06:04:58;;;;;;;26.23;11.60;;;13.50;99.90;;;;;;4973967;28;20489;-70
2023/05/08 06:07:24;;;;;;;21.67;10.00;;;13.50;99.90;;;;;;4974946;28;20463;-70
2023/05/08 06:09:51;;;;;;;23.63;11.57;;;13.50;99.90;;;;;;4987760;28;20495;-70
2023/05/08 06:12:17;;;;;;;21.10;10.97;;;13.50;99.90;;;;;;4991287;28;20187;-70
2023/05/08 06:14:43;;;;;;;25.40;12.07;;;13.50;99.90;;;;;;4986903;28;20436;-70
2023/05/08 06:17:09;;;;;;;25.60;10.93;;;13.50;99.90;;;;;;4974771;28;20192;-69
2023/05/08 06:19:35;;;;;;;23.70;11.43;;;13.60;99.90;;;;;;4972554;28;20554;-69
2023/05/08 06:22:01;;;;;;;31.17;12.10;;;13.60;99.90;;;;;;4977162;28;20192;-69
2023/05/08 06:24:27;;;;;;;21.47;11.30;;;13.60;99.90;;;;;;4972997;28;20776;-69
2023/05/08 06:26:53;;;;;;;20.27;10.80;;;13.60;99.90;;;;;;4972656;28;20423;-69
2023/05/08 06:29:18;;;;;;;22.50;12.07;;;13.60;99.90;;;;;;4976368;28;20559;-69
2023/05/08 06:31:44;;;;;;;24.50;11.00;;;13.60;99.90;;;;;;4978851;28;20195;-69
2023/05/08 06:34:10;;;;;;;17.40;10.03;;;13.70;99.90;;;;;;4985724;28;20188;-69
2023/05/08 06:36:35;;;;;;;21.40;9.70;;;13.70;99.90;;;;;;4974585;28;20266;-69
2023/05/08 06:39:04;;;;;;;17.43;10.43;;;13.80;99.90;;;;;;4975491;28;20691;-69
2023/05/08 06:41:30;;;;;;;20.50;10.43;;;13.80;99.90;;;;;;4970345;28;20526;-69
2023/05/08 06:43:56;;;;;;;29.30;11.80;;;13.80;99.90;;;;;;4971097;28;20466;-69
2023/05/08 06:46:21;;;;;;;22.30;11.27;;;13.80;99.90;;;;;;4971459;28;20193;-69
2023/05/08 06:48:47;;;;;;;26.13;10.50;;;13.80;99.90;;;;;;4971695;28;20286;-69
2023/05/08 06:51:13;;;;;;;25.87;11.07;;;13.80;99.90;;;;;;4972794;28;20656;-69
2023/05/08 06:53:38;;;;;;;18.70;10.30;;;13.80;99.90;;;;;;4990529;28;20188;-69
2023/05/08 06:56:04;;;;;;;22.17;10.53;;;13.70;99.90;;;;;;4991966;28;20206;-69
2023/05/08 06:58:31;;;;;;;21.07;11.90;;;13.70;99.90;;;;;;4978812;28;20270;-70
2023/05/08 07:00:59;;;;;;;21.73;11.43;;;13.70;99.90;;;;;;4986072;28;20428;-69
2023/05/08 07:03:25;;;;;;;26.03;10.60;;;13.60;99.90;;;;;;4972397;28;20431;-69
2023/05/08 07:05:50;;;;;;;22.03;11.33;;;13.60;99.90;;;;;;4984788;28;20447;-69
2023/05/08 07:08:16;;;;;;;21.40;11.53;;;13.70;99.90;;;;;;4991589;28;20239;-69
2023/05/08 07:10:41;;;;;;;23.13;11.03;;;13.70;99.90;;;;;;4974858;28;20213;-69
2023/05/08 07:13:07;;;;;;;22.50;11.63;;;13.70;99.90;;;;;;4990758;28;20184;-69
2023/05/08 07:15:33;;;;;;;19.90;11.40;;;13.70;99.90;;;;;;4979806;28;20176;-69
2023/05/08 07:17:58;;;;;;;25.10;10.83;;;13.70;99.90;;;;;;4979251;28;20195;-69
2023/05/08 07:20:24;;;;;;;18.10;9.63;;;13.70;99.90;;;;;;4979625;28;20629;-69
2023/05/08 07:22:50;;;;;;;20.97;11.93;;;13.80;99.90;;;;;;4976252;28;20188;-70
2023/05/08 07:25:15;;;;;;;23.13;10.37;;;13.90;99.90;;;;;;4980944;28;20192;-70
2023/05/08 07:27:41;;;;;;;21.97;11.40;;;13.90;99.90;;;;;;4976781;28;20194;-70
2023/05/08 07:30:08;;;;;;;23.87;11.80;;;14.00;99.90;;;;;;4978969;28;20212;-70
2023/05/08 07:32:34;;;;;;;25.77;11.90;;;14.10;99.90;;;;;;4984613;28;20459;-70
2023/05/08 07:35:01;;;;;;;25.70;11.43;;;14.20;99.90;;;;;;4972137;28;21482;-70
2023/05/08 07:37:28;;;;;;;25.23;11.50;;;14.40;99.90;;;;;;4977164;28;20585;-70
2023/05/08 07:39:53;;;;;;;20.97;11.07;;;14.40;99.90;;;;;;4975100;28;20427;-70
2023/05/08 07:42:20;;;;;;;21.20;11.70;;;14.60;99.90;;;;;;4986412;28;20514;-70
2023/05/08 07:44:45;;;;;;;21.37;11.63;;;14.70;99.90;;;;;;4972102;28;20239;-70
2023/05/08 07:47:11;;;;;;;20.90;10.60;;;14.70;99.90;;;;;;4990194;28;20430;-70
2023/05/08 07:49:37;;;;;;;17.57;10.30;;;14.70;99.90;;;;;;4979114;28;20204;-70
2023/05/08 07:52:02;;;;;;;16.33;8.53;;;14.80;99.90;;;;;;4975786;28;20664;-70
2023/05/08 07:54:28;;;;;;;17.33;8.67;;;14.80;99.90;;;;;;4991058;28;20207;-70
2023/05/08 07:56:53;;;;;;;14.40;8.30;;;14.80;99.90;;;;;;4974553;28;20207;-70
2023/05/08 07:59:19;;;;;;;17.67;9.57;;;14.90;99.90;;;;;;4971954;28;20223;-70
2023/05/08 08:01:46;;;;;;;18.37;8.33;;;14.80;99.90;;;;;;4975157;28;20183;-70
2023/05/08 08:04:15;;;;;;;15.90;8.27;;;14.90;99.90;;;;;;4980385;28;20184;-70
2023/05/08 08:06:41;;;;;;;14.03;7.47;;;14.90;99.90;;;;;;4976180;28;20473;-70
2023/05/08 08:09:06;;;;;;;16.90;8.47;;;14.90;99.90;;;;;;4983835;28;20776;-70
2023/05/08 08:11:32;;;;;;;11.63;6.53;;;15.00;99.90;;;;;;4971648;28;20614;-70
2023/05/08 08:13:58;;;;;;;17.87;8.80;;;15.00;99.90;;;;;;4978202;28;20192;-70
2023/05/08 08:16:23;;;;;;;14.93;6.93;;;15.10;99.90;;;;;;4971949;28;20181;-70
2023/05/08 08:18:51;;;;;;;14.93;7.33;;;15.20;99.90;;;;;;4971939;28;20223;-70
2023/05/08 08:21:17;;;;;;;12.10;7.00;;;15.40;99.90;;;;;;4978889;28;20180;-70
2023/05/08 08:23:43;;;;;;;13.77;7.00;;;15.50;99.90;;;;;;4983709;28;20423;-70
2023/05/08 08:26:08;;;;;;;20.93;7.97;;;15.50;99.90;;;;;;4978012;28;20218;-70
2023/05/08 08:28:34;;;;;;;10.90;6.27;;;15.70;99.90;;;;;;4979405;28;20541;-70
2023/05/08 08:30:59;;;;;;;13.80;6.80;;;15.80;99.90;;;;;;4971620;28;20188;-70
2023/05/08 08:33:28;;;;;;;9.37;4.90;;;15.70;99.90;;;;;;4971681;28;20533;-70
2023/05/08 08:35:54;;;;;;;8.30;5.23;;;15.70;99.90;;;;;;4989976;28;20227;-70
2023/05/08 08:38:19;;;;;;;12.33;6.70;;;15.60;99.90;;;;;;4984353;28;20424;-70
2023/05/08 08:40:45;;;;;;;12.30;5.57;;;15.50;99.90;;;;;;4970586;28;20189;-70
2023/05/08 08:43:10;;;;;;;17.40;7.43;;;15.40;99.90;;;;;;4974213;28;20188;-71
2023/05/08 08:45:37;;;;;;;12.27;6.80;;;15.40;99.90;;;;;;4980879;28;20706;-71
2023/05/08 08:48:03;;;;;;;11.27;6.10;;;15.30;99.90;;;;;;4986983;28;21170;-71
2023/05/08 08:50:34;;;;;;;8.60;6.43;;;15.30;99.90;;;;;;4975770;28;20498;-71
2023/05/08 08:53:11;;;;;;;14.57;6.60;;;15.40;99.90;;;;;;4973787;28;20474;-71
2023/05/08 08:55:42;;;;;;;13.47;6.97;;;15.30;99.90;;;;;;4963566;28;20415;-71
2023/05/08 08:58:14;;;;;;;11.67;6.37;;;15.30;99.90;;;;;;4987993;28;20432;-71
2023/05/08 09:00:41;;;;;;;9.10;5.77;;;15.30;99.90;;;;;;4985666;28;20416;-71
2023/05/08 09:03:07;;;;;;;15.27;7.00;;;15.30;99.90;;;;;;4988018;28;20415;-71
2023/05/08 09:05:34;;;;;;;17.50;6.50;;;15.40;99.90;;;;;;4980188;28;20443;-71
2023/05/08 09:08:00;;;;;;;11.70;5.80;;;15.40;99.90;;;;;;4990397;28;20648;-71
2023/05/08 09:10:26;;;;;;;8.40;5.37;;;15.40;99.90;;;;;;4985415;28;20521;-71
2023/05/08 09:12:52;;;;;;;13.73;6.47;;;15.40;99.90;;;;;;4991039;28;20439;-71
2023/05/08 09:15:17;;;;;;;12.83;6.90;;;15.40;99.90;;;;;;4982102;28;20223;-71
2023/05/08 09:17:43;;;;;;;12.50;6.40;;;15.30;99.90;;;;;;4975015;28;20180;-71
2023/05/08 09:20:10;;;;;;;8.97;6.20;;;15.10;99.90;;;;;;4974018;28;20211;-71
2023/05/08 09:22:36;;;;;;;13.13;7.77;;;15.20;99.90;;;;;;4973913;28;20235;-71
2023/05/08 09:25:02;;;;;;;14.77;6.40;;;15.20;99.90;;;;;;4973756;28;20531;-71
2023/05/08 09:27:30;;;;;;;11.00;6.77;;;15.30;99.90;;;;;;4987675;28;20192;-71
2023/05/08 09:30:11;;;;;;;12.30;6.97;;;15.20;99.90;;;;;;4984599;28;20469;-71
2023/05/08 09:32:42;;;;;;;11.60;6.87;;;15.20;99.90;;;;;;4980834;28;20414;-70
2023/05/08 09:35:09;;;;;;;10.83;6.10;;;15.00;99.90;;;;;;4993594;28;20458;-70
2023/05/08 09:37:38;;;;;;;9.43;5.20;;;14.90;99.90;;;;;;4961255;28;20412;-70
2023/05/08 09:40:21;;;;;;;11.03;6.07;;;14.80;99.90;;;;;;4973250;28;21236;-70
2023/05/08 09:42:48;;;;;;;13.37;5.37;;;14.70;99.90;;;;;;4983607;28;20467;-70
2023/05/08 09:45:30;;;;;;;11.30;5.70;;;14.70;99.90;;;;;;4976451;28;20427;-70
2023/05/08 09:47:56;;;;;;;15.40;5.90;;;14.60;99.90;;;;;;4981209;28;20434;-70
2023/05/08 09:50:23;;;;;;;13.83;6.30;;;14.60;99.90;;;;;;4973130;28;20550;-70
2023/05/08 09:52:49;;;;;;;11.47;6.10;;;14.50;99.90;;;;;;4973350;28;20953;-70
2023/05/08 09:55:15;;;;;;;10.37;5.07;;;14.50;99.90;;;;;;4976262;28;20833;-70
2023/05/08 09:57:56;;;;;;;11.17;7.00;;;14.40;99.90;;;;;;4985309;28;20426;-70
2023/05/08 10:00:26;;;;;;;10.37;5.83;;;14.30;99.90;;;;;;4991120;28;20917;-71
2023/05/08 10:02:54;;;;;;;10.10;5.60;;;14.30;99.90;;;;;;4972510;28;20531;-71
2023/05/08 10:05:26;;;;;;;12.20;6.60;;;14.30;99.90;;;;;;4984415;28;20463;-70
2023/05/08 10:07:52;;;;;;;10.90;6.47;;;14.20;99.90;;;;;;4986476;28;20523;-70
2023/05/08 10:10:26;;;;;;;9.03;5.67;;;14.20;99.90;;;;;;4988176;28;20462;-70
2023/05/08 10:12:53;;;;;;;10.77;5.80;;;14.10;99.90;;;;;;4975756;28;20427;-68
2023/05/08 10:15:22;;;;;;;6.20;4.40;;;14.00;99.90;;;;;;4978606;28;20439;-68
2023/05/08 10:18:02;;;;;;;16.83;6.50;;;13.90;99.90;;;;;;4979047;28;21015;-68
2023/05/08 10:20:29;;;;;;;15.67;7.17;;;14.00;99.90;;;;;;4964581;28;20431;-69
2023/05/08 10:22:56;;;;;;;11.00;6.50;;;14.10;99.90;;;;;;4990751;28;20433;-68
2023/05/08 10:25:23;;;;;;;9.83;5.47;;;14.10;99.90;;;;;;4992226;28;20911;-68
2023/05/08 10:28:15;;;;;;;11.30;5.83;;;14.20;99.90;;;;;;4991645;28;20438;-69
2023/05/08 10:30:46;;;;;;;19.73;7.03;;;14.20;99.90;;;;;;4981490;28;20475;-69
2023/05/08 10:33:14;;;;;;;10.37;5.67;;;14.30;99.90;;;;;;4972557;28;20538;-69
2023/05/08 10:35:40;;;;;;;10.27;5.43;;;14.40;99.90;;;;;;4985252;28;20428;-69
2023/05/08 10:38:10;;;;;;;9.20;5.40;;;14.40;99.90;;;;;;4976833;28;20896;-69
2023/05/08 10:40:37;;;;;;;14.53;4.53;;;14.40;99.90;;;;;;4990522;28;20966;-69
2023/05/08 10:43:04;;;;;;;12.33;5.20;;;14.40;99.90;;;;;;4981552;28;20443;-68
2023/05/08 10:45:30;;;;;;;11.37;5.87;;;14.40;99.90;;;;;;4985738;28;21039;-69
2023/05/08 10:48:28;;;;;;;12.10;5.47;;;14.50;99.90;;;;;;4971853;28;20943;-69
2023/05/08 10:51:08;;;;;;;13.63;5.50;;;14.50;99.90;;;;;;4966580;28;20489;-69
2023/05/08 10:53:46;;;;;;;9.07;5.80;;;14.60;99.90;;;;;;4974035;28;20439;-69
2023/05/08 10:56:12;;;;;;;8.80;4.77;;;14.60;99.90;;;;;;4972852;28;20420;-69
2023/05/08 10:58:40;;;;;;;7.63;4.50;;;14.50;99.90;;;;;;4988168;28;20438;-69
2023/05/08 11:01:06;;;;;;;10.67;5.23;;;14.60;99.90;;;;;;4980443;28;20192;-69
2023/05/08 11:03:42;;;;;;;7.23;4.80;;;14.60;99.90;;;;;;4972381;28;20427;-68
2023/05/08 11:06:09;;;;;;;8.93;5.20;;;14.70;99.90;;;;;;4985236;28;20218;-68
2023/05/08 11:08:46;;;;;;;8.17;5.70;;;14.70;99.90;;;;;;4978420;28;20567;-68
2023/05/08 11:11:34;;;;;;;10.73;4.93;;;14.70;99.90;;;;;;4972795;28;20424;-69
2023/05/08 11:14:05;;;;;;;10.67;5.20;;;14.70;99.90;;;;;;4983420;28;20431;-68
2023/05/08 11:16:53;;;;;;;10.80;5.13;;;14.70;99.90;;;;;;4974458;28;20428;-68
2023/05/08 11:19:20;;;;;;;5.13;3.90;;;14.70;99.90;;;;;;4972143;28;20431;-68
2023/05/08 11:22:11;;;;;;;6.17;3.50;;;14.70;99.90;;;;;;4981720;28;20879;-68
2023/05/08 11:24:39;;;;;;;7.20;4.57;;;14.80;99.90;;;;;;4978558;28;20419;-68
2023/05/08 11:27:05;;;;;;;7.53;4.70;;;14.80;99.90;;;;;;4979617;28;20431;-68
2023/05/08 11:29:31;;;;;;;7.90;4.50;;;14.80;99.90;;;;;;4986556;28;20455;-68
2023/05/08 11:31:57;;;;;;;10.23;4.90;;;14.90;99.90;;;;;;4972324;28;20794;-68
2023/05/08 11:34:41;;;;;;;7.50;4.23;;;15.00;99.90;;;;;;4971516;28;20928;-68
2023/05/08 11:37:20;;;;;;;5.27;3.00;;;15.10;99.90;;;;;;4969811;28;20431;-68
2023/05/08 11:39:47;;;;;;;6.30;3.67;;;15.20;99.90;;;;;;4972913;28;20506;-68
2023/05/08 11:42:27;;;;;;;4.57;2.47;;;15.20;99.90;;;;;;4973651;28;20428;-68
2023/05/08 11:45:04;;;;;;;4.37;2.80;;;15.30;99.90;;;;;;4970844;28;20424;-70
2023/05/08 11:47:37;;;;;;;5.47;3.30;;;15.20;99.90;;;;;;4979880;28;20458;-70
2023/05/08 11:50:03;;;;;;;4.43;2.90;;;15.40;99.90;;;;;;4987869;28;20568;-70
2023/05/08 11:52:32;;;;;;;4.47;2.97;;;15.50;99.90;;;;;;4971762;28;20456;-70
2023/05/08 11:55:03;;;;;;;6.07;2.67;;;15.60;99.90;;;;;;4973291;28;20208;-70
2023/05/08 11:57:30;;;;;;;4.73;2.77;;;15.70;99.90;;;;;;4981781;28;20909;-70
2023/05/08 11:59:56;;;;;;;5.00;3.10;;;15.80;99.90;;;;;;4972033;28;20928;-70
2023/05/08 12:02:42;;;;;;;6.30;3.60;;;16.00;99.90;;;;;;4971159;28;20427;-70
2023/05/08 12:05:08;;;;;;;5.93;3.37;;;16.10;99.90;;;;;;4971406;28;20215;-70
2023/05/08 12:07:45;;;;;;;5.87;3.03;;;16.40;99.90;;;;;;4971829;28;20428;-71
2023/05/08 12:10:11;;;;;;;4.43;2.73;;;16.70;99.90;;;;;;4965362;28;20798;-71
2023/05/08 12:12:41;;;;;;;5.10;2.77;;;17.00;99.90;;;;;;4985722;28;20789;-71
2023/05/08 12:15:14;;;;;;;4.90;2.70;;;17.10;99.90;;;;;;4983176;28;20435;-71
2023/05/08 12:17:40;;;;;;;3.53;2.40;;;17.10;99.90;;;;;;4977304;28;20478;-71
2023/05/08 12:20:18;;;;;;;6.70;2.83;;;17.30;99.90;;;;;;4977964;28;20462;-71
2023/05/08 12:22:51;;;;;;;4.77;2.30;;;17.60;99.90;;;;;;4980342;28;20484;-71
2023/05/08 12:25:17;;;;;;;3.30;1.83;;;17.80;99.90;;;;;;4985870;28;20461;-71
2023/05/08 12:27:44;;;;;;;2.37;1.57;;;17.90;99.90;;;;;;4978167;28;21272;-71
2023/05/08 12:30:13;;;;;;;3.90;1.10;;;17.90;99.90;;;;;;4978299;28;20459;-71
2023/05/08 12:32:43;;;;;;;2.23;1.33;;;18.10;99.90;;;;;;4982998;28;20422;-69
2023/05/08 12:35:12;;;;;;;2.80;1.57;;;18.40;99.90;;;;;;4997471;28;20414;-70
2023/05/08 12:37:38;;;;;;;5.90;2.20;;;18.80;99.90;;;;;;4988079;28;20422;-70
2023/05/08 12:40:05;;;;;;;3.87;2.30;;;18.90;99.90;;;;;;4990735;28;20441;-70
2023/05/08 12:42:47;;;;;;;3.40;1.60;;;18.90;99.90;;;;;;4988411;28;20191;-70
2023/05/08 12:45:45;;;;;;;3.50;1.90;;;18.60;99.90;;;;;;4982289;28;20967;-70
2023/05/08 12:48:14;;;;;;;5.50;2.30;;;18.80;99.90;;;;;;4953278;28;20450;-70
2023/05/08 12:50:41;;;;;;;5.33;2.00;;;18.90;99.90;;;;;;4965280;28;21117;-70